Impacts METAR Board
IDs:

KAUS - Austin/Bergstrom Int, TX, US

Updated at: 0900 UTC 26 May 2019
Potential Impact None Slight Moderate High
Time 25/21Z 25/22Z 25/23Z 26/00Z 26/01Z 26/02Z 26/03Z 26/04Z 26/05Z 26/06Z 26/07Z 26/08Z 26/09Z
Temp93 91 89 89 86 83 80 79 77 76 76 76 76
Dewpt70 70 69 69 66 66 67 68 70 71 72 71 72
Altim29.97 29.96 29.96 29.96 29.96 29.97 30.00 30.00 30.01 30.02 30.01 30.01 30.00
VIS10 10 10 10 10 10 10 10 10 10 10 10 10
CIG-- -- -- -- -- -- -- -- -- 15 15 -- 19
CoverSCTFEWFEWFEWFEWFEWFEWSCTSCTBKNBKNSCTBKN
FltCatVFRVFRVFRVFRVFRVFRVFRVFRVFRMVFRMVFRVFRMVFR
WX--------------------------
WDir140140150150140150150150160170170160160
WSpd16 18 14 14 16 10 8 12 9 7 6 8 8
WGst24 -- -- -- -- -- -- -- -- -- -- -- --
Raw hourly METARs
KAUS 252053Z 14016G24KT 10SM SCT050TCU SCT070 SCT250 34/21 A2997 RMK AO2 SLP135 TCU SW T03390211 58019
KAUS 252153Z 14018KT 10SM FEW042 FEW055 FEW250 33/21 A2996 RMK AO2 SLP134 T03280211
KAUS 252253Z 15014KT 10SM FEW046 FEW060 32/21 A2996 RMK AO2 SLP132 T03170206
KAUS 252353Z 15014KT 10SM FEW046 FEW060 32/21 A2996 RMK AO2 SLP132 T03170206 10339 20311 55004
KAUS 260053Z 14016KT 10SM FEW045 FEW060 30/19 A2996 RMK AO2 SLP133 T03000189
KAUS 260153Z 15010KT 10SM FEW060 28/19 A2997 RMK AO2 SLP138 T02830189
KAUS 260253Z 15008KT 10SM FEW060 27/19 A3000 RMK AO2 SLP147 T02670194 53014
KAUS 260353Z COR 15012KT 10SM FEW060 SCT250 26/20 A3000 RMK AO2 SLP149 T02610200
KAUS 260453Z 16009KT 10SM FEW060 SCT250 25/21 A3001 RMK AO2 SLP151 T02500211
KAUS 260553Z 17007KT 10SM BKN015 24/22 A3002 RMK AO2 SLP153 T02440217 10317 20244 403390244 53007
KAUS 260653Z COR 17006KT 10SM BKN015 BKN021 BKN028 24/22 A3001 RMK AO2 SLP151 T02440222
KAUS 260753Z 16008KT 10SM SCT018 SCT025 24/22 A3001 RMK AO2 SLP150 T02440217
KAUS 260853Z 16008KT 10SM SCT014 BKN019 BKN025 24/22 A3000 RMK AO2 SLP147 T02440222 58006